createdAt,value
2022-12-04T00:00:00.701Z,56.78
2022-12-04T00:02:27.362Z,54.03
2022-12-04T00:04:54.093Z,53.80
2022-12-04T00:07:20.706Z,56.45
2022-12-04T00:09:47.358Z,54.40
2022-12-04T00:12:13.891Z,46.63
2022-12-04T00:15:00.730Z,58.22
2022-12-04T00:17:26.989Z,56.13
2022-12-04T00:19:53.814Z,58.88
2022-12-04T00:22:21.140Z,51.53
2022-12-04T00:24:47.811Z,61.45
2022-12-04T00:27:14.617Z,52.85
2022-12-04T00:29:41.296Z,55.78
2022-12-04T00:32:07.911Z,57.65
2022-12-04T00:34:34.586Z,61.72
2022-12-04T00:37:01.141Z,61.75
2022-12-04T00:39:27.735Z,57.88
2022-12-04T00:41:54.818Z,60.25
2022-12-04T00:44:21.404Z,57.67
2022-12-04T00:46:47.945Z,56.50
2022-12-04T00:49:14.531Z,56.28
2022-12-04T00:51:41.115Z,64.07
2022-12-04T00:54:07.690Z,56.55
2022-12-04T00:56:34.263Z,55.72
2022-12-04T00:59:01.700Z,55.38
2022-12-04T01:01:29.759Z,57.83
2022-12-04T01:03:57.061Z,55.35
2022-12-04T01:06:30.168Z,56.33
2022-12-04T01:08:58.064Z,56.80
2022-12-04T01:11:26.627Z,59.40
2022-12-04T01:13:53.816Z,61.47
2022-12-04T01:16:23.860Z,54.30
2022-12-04T01:18:51.139Z,59.47
2022-12-04T01:21:18.874Z,60.55
2022-12-04T01:23:45.740Z,61.60
2022-12-04T01:26:13.006Z,61.03
2022-12-04T01:28:39.980Z,63.78
2022-12-04T01:31:10.325Z,62.75
2022-12-04T01:33:38.258Z,70.20
2022-12-04T01:36:07.836Z,58.35
2022-12-04T01:38:35.482Z,61.03
2022-12-04T01:41:02.377Z,55.63
2022-12-04T01:43:31.014Z,67.97
2022-12-04T01:46:01.265Z,56.42
2022-12-04T01:48:36.460Z,63.38
2022-12-04T01:51:18.627Z,64.90
2022-12-04T01:53:52.290Z,62.33
2022-12-04T01:56:22.593Z,58.55
2022-12-04T01:58:54.055Z,70.47
2022-12-04T02:01:20.935Z,64.75
2022-12-04T02:03:47.557Z,64.38
2022-12-04T02:06:14.149Z,69.97
2022-12-04T02:08:41.056Z,62.00
2022-12-04T02:11:26.336Z,63.00
2022-12-04T02:14:25.493Z,64.90
2022-12-04T02:16:55.042Z,59.38
2022-12-04T02:19:52.396Z,60.83
2022-12-04T02:22:31.275Z,70.30
2022-12-04T02:25:21.135Z,63.55
2022-12-04T02:28:08.944Z,58.08
2022-12-04T02:30:40.399Z,64.93
2022-12-04T02:33:27.503Z,60.28
2022-12-04T02:36:10.484Z,61.25
2022-12-04T02:38:40.617Z,71.05
2022-12-04T02:41:16.730Z,74.43
2022-12-04T02:43:52.354Z,67.63
2022-12-04T02:46:18.933Z,76.57
2022-12-04T02:48:50.760Z,62.03
2022-12-04T02:51:21.246Z,66.63
2022-12-04T02:53:53.132Z,67.35
2022-12-04T02:56:34.626Z,62.30
2022-12-04T02:59:09.846Z,68.35
2022-12-04T03:01:42.989Z,59.17
2022-12-04T03:04:16.651Z,64.95
2022-12-04T03:06:46.125Z,61.20
2022-12-04T03:09:18.117Z,61.42
2022-12-04T03:11:50.282Z,64.85
2022-12-04T03:14:22.266Z,64.43
2022-12-04T03:16:52.265Z,58.72
2022-12-04T03:19:24.444Z,70.15
2022-12-04T03:22:12.953Z,62.83
2022-12-04T03:24:45.659Z,62.45
2022-12-04T03:27:20.407Z,60.50
2022-12-04T03:30:15.873Z,63.70
2022-12-04T03:32:42.425Z,65.70
2022-12-04T03:35:14.941Z,66.03
2022-12-04T03:37:50.296Z,69.50
2022-12-04T03:40:34.164Z,66.68
2022-12-04T03:43:21.042Z,68.95
2022-12-04T03:45:51.663Z,63.85
2022-12-04T03:48:31.687Z,64.13
2022-12-04T03:51:08.495Z,70.03
2022-12-04T03:53:49.125Z,66.72
2022-12-04T03:58:55.728Z,65.97
2022-12-04T04:01:27.626Z,63.13
2022-12-04T04:03:57.846Z,66.88
2022-12-04T04:06:29.653Z,67.97
2022-12-04T04:09:02.320Z,67.75
2022-12-04T04:11:37.665Z,61.70
2022-12-04T04:14:35.714Z,59.78
2022-12-04T04:17:25.258Z,65.70
2022-12-04T04:20:19.949Z,60.30
2022-12-04T04:23:07.847Z,61.13
2022-12-04T04:25:37.796Z,71.10
2022-12-04T04:28:04.428Z,67.97
2022-12-04T04:30:32.734Z,61.97
2022-12-04T04:33:16.186Z,68.88
2022-12-04T04:35:52.061Z,66.15
2022-12-04T04:38:31.723Z,66.57
2022-12-04T04:41:05.407Z,66.80
2022-12-04T04:43:40.657Z,60.63
2022-12-04T04:46:14.117Z,72.85
2022-12-04T04:48:44.920Z,72.10
2022-12-04T04:51:11.875Z,70.35
2022-12-04T04:53:51.539Z,60.88
2022-12-04T04:56:19.060Z,49.45
2022-12-04T04:58:45.812Z,69.72
2022-12-04T05:01:16.056Z,68.10
2022-12-04T05:03:42.759Z,75.22
2022-12-04T05:06:09.499Z,61.30
2022-12-04T05:08:36.838Z,71.78
2022-12-04T05:11:04.081Z,65.10
2022-12-04T05:13:31.069Z,64.25
2022-12-04T05:16:06.144Z,71.63
2022-12-04T05:18:34.827Z,62.15
2022-12-04T05:21:18.702Z,62.28
2022-12-04T05:23:45.324Z,65.28
2022-12-04T05:26:12.045Z,60.03
2022-12-04T05:28:40.809Z,64.47
2022-12-04T05:31:07.474Z,65.32
2022-12-04T05:33:34.061Z,73.00
2022-12-04T05:36:04.122Z,64.60
2022-12-04T05:38:31.246Z,65.43
2022-12-04T05:40:58.947Z,61.90
2022-12-04T05:43:25.887Z,65.97
2022-12-04T05:45:52.520Z,65.75
2022-12-04T05:48:19.103Z,69.18
2022-12-04T05:50:45.738Z,65.45
2022-12-04T05:53:12.487Z,66.03
2022-12-04T05:55:39.059Z,73.68
2022-12-04T05:58:05.626Z,67.70
2022-12-04T06:00:33.297Z,70.13
2022-12-04T06:02:59.981Z,71.43
2022-12-04T06:05:26.649Z,61.20
2022-12-04T06:07:53.302Z,67.07
2022-12-04T06:10:19.890Z,65.65
2022-12-04T06:12:46.494Z,69.07
2022-12-04T06:15:13.070Z,69.50
2022-12-04T06:17:39.700Z,77.00
2022-12-04T06:20:11.421Z,67.80
2022-12-04T06:22:38.426Z,67.32
2022-12-04T06:25:05.332Z,65.45
2022-12-04T06:27:31.878Z,61.15
2022-12-04T06:29:59.143Z,72.47
2022-12-04T06:32:26.221Z,64.13
2022-12-04T06:34:54.400Z,65.13
2022-12-04T06:37:23.120Z,67.00
2022-12-04T06:39:49.665Z,70.47
2022-12-04T06:42:16.550Z,72.20
2022-12-04T06:44:43.112Z,71.82
2022-12-04T06:47:09.847Z,67.57
2022-12-04T06:49:36.504Z,78.15
2022-12-04T06:52:03.468Z,80.90
2022-12-04T06:54:30.049Z,69.53
2022-12-04T06:56:56.748Z,76.28
2022-12-04T06:59:23.809Z,68.80
2022-12-04T07:01:50.675Z,68.88
2022-12-04T07:04:17.425Z,77.18
2022-12-04T07:06:44.008Z,77.18
2022-12-04T07:09:14.270Z,74.78
2022-12-04T07:11:42.300Z,76.00
2022-12-04T07:14:09.609Z,70.28
2022-12-04T07:16:40.780Z,69.65
2022-12-04T07:19:13.016Z,73.88
2022-12-04T07:21:39.682Z,71.22
2022-12-04T07:24:06.485Z,75.70
2022-12-04T07:26:33.141Z,73.60
2022-12-04T07:28:59.894Z,77.95
2022-12-04T07:31:28.116Z,74.45
2022-12-04T07:33:55.486Z,75.50
2022-12-04T07:36:23.020Z,69.38
2022-12-04T07:38:50.456Z,72.90
2022-12-04T07:41:18.094Z,74.78
2022-12-04T07:43:45.291Z,67.32
2022-12-04T07:46:21.034Z,73.22
2022-12-04T07:48:47.745Z,77.90
2022-12-04T07:51:20.312Z,77.20
2022-12-04T07:53:47.129Z,75.53
2022-12-04T07:56:14.157Z,68.60
2022-12-04T07:58:41.546Z,73.63
2022-12-04T08:01:12.872Z,80.35
2022-12-04T08:03:46.774Z,69.63
2022-12-04T08:06:15.592Z,75.88
2022-12-04T08:08:42.146Z,74.05
2022-12-04T08:11:11.447Z,71.20
2022-12-04T08:13:38.047Z,66.82
2022-12-04T08:16:06.378Z,73.82
2022-12-04T08:18:33.502Z,68.95
2022-12-04T08:21:08.615Z,77.75
2022-12-04T08:23:36.097Z,74.13
2022-12-04T08:26:04.104Z,69.68
2022-12-04T08:28:31.606Z,77.55
2022-12-04T08:31:07.054Z,70.70
2022-12-04T08:33:34.647Z,74.22
2022-12-04T08:36:01.514Z,71.70
2022-12-04T08:38:28.079Z,68.22
2022-12-04T08:40:54.626Z,74.85
2022-12-04T08:43:21.231Z,73.38
2022-12-04T08:45:58.940Z,80.03
2022-12-04T08:48:26.197Z,68.93
2022-12-04T08:50:53.086Z,72.70
2022-12-04T08:53:20.114Z,77.50
2022-12-04T08:55:46.830Z,69.57
2022-12-04T08:58:14.032Z,71.88
2022-12-04T09:00:40.893Z,68.70
2022-12-04T09:03:07.541Z,70.60
2022-12-04T09:05:34.158Z,61.20
2022-12-04T09:08:00.869Z,66.57
2022-12-04T09:10:27.661Z,75.50
2022-12-04T09:12:54.396Z,66.72
2022-12-04T09:15:21.066Z,73.80
2022-12-04T09:17:47.665Z,67.30
2022-12-04T09:20:15.017Z,70.72
2022-12-04T09:23:02.993Z,64.25
2022-12-04T09:25:28.443Z,64.05
2022-12-04T09:27:54.999Z,60.13
2022-12-04T09:30:21.569Z,68.05
2022-12-04T09:32:48.132Z,63.80
2022-12-04T09:35:14.789Z,69.05
2022-12-04T09:37:41.350Z,65.63
2022-12-04T09:40:09.066Z,66.30
2022-12-04T09:43:08.080Z,64.95
2022-12-04T09:45:44.183Z,66.05
2022-12-04T09:48:12.526Z,61.25
2022-12-04T09:50:44.643Z,67.30
2022-12-04T09:53:19.451Z,58.45
2022-12-04T09:55:56.112Z,59.05
2022-12-04T09:58:32.643Z,61.85
2022-12-04T10:01:03.225Z,65.32
2022-12-04T10:06:11.704Z,66.47
2022-12-04T10:08:51.228Z,60.38
2022-12-04T10:11:39.904Z,59.28
2022-12-04T10:14:15.407Z,58.38
2022-12-04T10:16:52.507Z,61.58
2022-12-04T10:19:48.389Z,57.00
2022-12-04T10:22:46.510Z,65.72
2022-12-04T10:25:19.863Z,63.13
2022-12-04T10:28:31.411Z,62.25
2022-12-04T10:31:02.427Z,63.80
2022-12-04T10:33:53.565Z,57.55
2022-12-04T10:36:25.406Z,60.72
2022-12-04T10:39:10.135Z,59.42
2022-12-04T10:41:55.061Z,60.38
2022-12-04T10:44:21.883Z,68.10
2022-12-04T10:46:50.874Z,66.40
2022-12-04T10:49:21.226Z,77.97
2022-12-04T10:51:48.234Z,63.33
2022-12-04T10:54:26.910Z,64.50
2022-12-04T10:57:12.289Z,70.00
2022-12-04T10:59:52.412Z,69.75
2022-12-04T11:02:24.309Z,72.07
2022-12-04T11:04:58.215Z,76.72
2022-12-04T11:07:31.203Z,71.63
2022-12-04T11:09:59.412Z,76.28
2022-12-04T11:12:26.133Z,67.57
2022-12-04T11:15:14.086Z,70.05
2022-12-04T11:17:40.967Z,71.13
2022-12-04T11:20:16.382Z,69.70
2022-12-04T11:22:53.823Z,68.82
2022-12-04T11:25:22.630Z,59.60
2022-12-04T11:27:53.056Z,57.35
2022-12-04T11:30:26.211Z,66.15
2022-12-04T11:32:54.267Z,58.50
2022-12-04T11:35:24.700Z,57.60
2022-12-04T11:38:07.535Z,54.42
2022-12-04T11:40:34.607Z,52.28
2022-12-04T11:43:03.467Z,50.53
2022-12-04T11:45:30.130Z,56.58
2022-12-04T11:48:03.254Z,59.38
2022-12-04T11:51:07.517Z,55.97
2022-12-04T11:54:11.150Z,53.20
2022-12-04T11:56:50.072Z,50.20
2022-12-04T11:59:30.842Z,54.17
2022-12-04T12:04:41.857Z,51.83
2022-12-04T12:07:42.855Z,52.40
2022-12-04T12:10:18.795Z,57.10
2022-12-04T12:13:27.269Z,56.85
2022-12-04T12:16:21.737Z,56.28
2022-12-04T12:19:00.441Z,54.92
2022-12-04T12:21:36.450Z,53.80
2022-12-04T12:24:21.794Z,51.70
2022-12-04T12:27:02.427Z,53.72
2022-12-04T12:30:07.031Z,54.20
2022-12-04T12:32:58.256Z,53.67
2022-12-04T12:35:34.297Z,52.20
2022-12-04T12:38:21.970Z,55.17
2022-12-04T12:40:58.426Z,58.88
2022-12-04T12:43:31.577Z,57.08
2022-12-04T12:46:33.657Z,59.08
2022-12-04T12:49:13.800Z,58.75
2022-12-04T12:52:05.090Z,61.75
2022-12-04T12:54:41.417Z,53.17
2022-12-04T12:57:21.848Z,55.25
2022-12-04T12:59:54.496Z,54.85
2022-12-04T13:02:21.372Z,55.80
2022-12-04T13:04:55.319Z,57.72
2022-12-04T13:07:29.793Z,53.00
2022-12-04T13:10:13.445Z,59.92
2022-12-04T13:13:01.165Z,54.45
2022-12-04T13:15:39.075Z,59.65
2022-12-04T13:18:09.431Z,56.70
2022-12-04T13:20:51.495Z,55.10
2022-12-04T13:23:24.088Z,51.40
2022-12-04T13:26:25.638Z,57.17
2022-12-04T13:29:08.832Z,50.33
2022-12-04T13:31:46.069Z,52.83
2022-12-04T13:34:33.467Z,62.78
2022-12-04T13:37:17.748Z,60.05
2022-12-04T13:39:50.440Z,56.67
2022-12-04T13:42:24.970Z,56.80
2022-12-04T13:44:57.598Z,57.45
2022-12-04T13:47:33.505Z,57.08
2022-12-04T13:50:19.391Z,51.97
2022-12-04T13:52:49.110Z,58.20
2022-12-04T13:55:55.076Z,57.80
2022-12-04T13:58:21.647Z,55.42
2022-12-04T14:00:48.373Z,57.17
2022-12-04T14:03:25.277Z,57.95
2022-12-04T14:05:52.463Z,54.33
2022-12-04T14:08:19.047Z,57.97
2022-12-04T14:11:04.338Z,57.38
2022-12-04T14:13:45.570Z,57.83
2022-12-04T14:16:21.807Z,65.25
2022-12-04T14:18:56.157Z,57.45
2022-12-04T14:21:23.349Z,63.53
2022-12-04T14:23:52.004Z,58.28
2022-12-04T14:26:48.984Z,54.30
2022-12-04T14:29:41.777Z,64.32
2022-12-04T14:32:15.454Z,58.80
2022-12-04T14:34:42.740Z,64.35
2022-12-04T14:37:21.045Z,55.30
2022-12-04T14:39:49.554Z,56.97
2022-12-04T14:42:26.512Z,59.50
2022-12-04T14:44:56.500Z,71.82
2022-12-04T14:47:38.287Z,63.33
2022-12-04T14:50:32.290Z,63.05
2022-12-04T14:53:57.260Z,63.83
2022-12-04T14:57:05.458Z,65.95
2022-12-04T14:59:43.817Z,67.10
2022-12-04T15:02:18.635Z,69.65
2022-12-04T15:04:47.271Z,61.53
2022-12-04T15:07:22.766Z,66.95
2022-12-04T15:10:19.574Z,69.82
2022-12-04T15:12:53.561Z,68.70
2022-12-04T15:15:26.932Z,72.30
2022-12-04T15:17:57.867Z,71.70
2022-12-04T15:20:25.165Z,73.28
2022-12-04T15:22:53.991Z,66.97
2022-12-04T15:25:24.352Z,67.95
2022-12-04T15:27:53.677Z,68.63
2022-12-04T15:30:24.545Z,76.90
2022-12-04T15:32:53.404Z,69.90
2022-12-04T15:35:29.011Z,72.18
2022-12-04T15:37:56.091Z,73.13
2022-12-04T15:40:26.361Z,67.72
2022-12-04T15:42:53.421Z,75.78
2022-12-04T15:45:25.797Z,72.43
2022-12-04T15:47:54.157Z,71.80
2022-12-04T15:50:30.835Z,74.75
2022-12-04T15:53:02.078Z,73.07
2022-12-04T15:55:32.397Z,66.53
2022-12-04T15:58:06.054Z,68.90
2022-12-04T16:00:38.013Z,69.75
2022-12-04T16:03:26.823Z,73.13
2022-12-04T16:06:13.302Z,68.65
2022-12-04T16:08:41.899Z,69.40
2022-12-04T16:11:20.449Z,71.13
2022-12-04T16:14:05.568Z,67.75
2022-12-04T16:16:32.214Z,74.57
2022-12-04T16:18:58.990Z,72.60
2022-12-04T16:21:31.252Z,69.82
2022-12-04T16:24:04.890Z,66.45
2022-12-04T16:26:31.910Z,65.85
2022-12-04T16:28:59.210Z,63.47
2022-12-04T16:31:26.348Z,65.65
2022-12-04T16:33:53.042Z,66.90
2022-12-04T16:36:19.635Z,57.88
2022-12-04T16:38:46.395Z,60.35
2022-12-04T16:41:21.813Z,64.75
2022-12-04T16:43:57.541Z,59.03
2022-12-04T16:46:27.879Z,59.15
2022-12-04T16:48:54.827Z,57.83
2022-12-04T16:51:27.030Z,65.45
2022-12-04T16:53:54.646Z,66.10
2022-12-04T16:56:21.970Z,62.80
2022-12-04T16:58:49.092Z,57.55
2022-12-04T17:01:25.365Z,58.13
2022-12-04T17:03:52.507Z,64.60
2022-12-04T17:06:19.267Z,63.88
2022-12-04T17:08:46.124Z,62.33
2022-12-04T17:11:14.299Z,57.78
2022-12-04T17:13:41.872Z,58.15
2022-12-04T17:16:09.177Z,61.80
2022-12-04T17:18:36.278Z,59.95
2022-12-04T17:21:11.702Z,62.55
2022-12-04T17:23:39.081Z,59.95
2022-12-04T17:26:08.378Z,65.90
2022-12-04T17:28:36.413Z,60.72
2022-12-04T17:31:04.693Z,61.67
2022-12-04T17:33:32.269Z,64.28
2022-12-04T17:36:00.271Z,64.00
2022-12-04T17:38:27.907Z,59.33
2022-12-04T17:41:02.074Z,56.60
2022-12-04T17:43:29.891Z,64.15
2022-12-04T17:45:57.424Z,65.97
2022-12-04T17:48:24.501Z,66.30
2022-12-04T17:51:02.567Z,63.58
2022-12-04T17:53:29.173Z,57.10
2022-12-04T17:55:55.718Z,58.85
2022-12-04T17:58:22.304Z,60.67
2022-12-04T18:00:48.898Z,64.43
2022-12-04T18:03:15.583Z,63.88
2022-12-04T18:05:42.167Z,68.28
2022-12-04T18:08:08.795Z,65.22
2022-12-04T18:10:35.516Z,65.13
2022-12-04T18:13:02.075Z,60.97
2022-12-04T18:15:28.614Z,64.25
2022-12-04T18:17:55.390Z,59.60
2022-12-04T18:20:21.947Z,66.00
2022-12-04T18:22:48.510Z,64.90
2022-12-04T18:25:15.101Z,57.60
2022-12-04T18:27:42.117Z,60.22
2022-12-04T18:30:09.835Z,59.40
2022-12-04T18:32:36.406Z,60.33
2022-12-04T18:35:03.034Z,69.18
2022-12-04T18:37:29.591Z,60.60
2022-12-04T18:39:56.551Z,60.17
2022-12-04T18:42:24.188Z,65.22
2022-12-04T18:44:50.721Z,62.60
2022-12-04T18:47:17.314Z,67.60
2022-12-04T18:49:43.884Z,62.63
2022-12-04T18:52:10.432Z,60.95
2022-12-04T18:54:36.967Z,64.28
2022-12-04T18:57:03.658Z,61.58
2022-12-04T18:59:30.191Z,58.60
2022-12-04T19:01:56.807Z,68.88
2022-12-04T19:04:25.084Z,63.28
2022-12-04T19:06:54.325Z,65.28
2022-12-04T19:09:40.819Z,61.67
2022-12-04T19:12:11.085Z,56.17
2022-12-04T19:14:38.605Z,55.95
2022-12-04T19:17:05.571Z,54.40
2022-12-04T19:19:32.189Z,47.72
2022-12-04T19:21:59.170Z,47.00
2022-12-04T19:24:25.730Z,52.80
2022-12-04T19:26:54.288Z,53.13
2022-12-04T19:29:20.879Z,52.15
2022-12-04T19:31:47.552Z,56.28
2022-12-04T19:34:14.292Z,53.78
2022-12-04T19:36:41.681Z,49.83
2022-12-04T19:39:08.260Z,50.42
2022-12-04T19:41:37.022Z,47.35
2022-12-04T19:44:25.974Z,47.97
2022-12-04T19:46:51.216Z,48.40
2022-12-04T19:49:17.715Z,42.47
2022-12-04T19:51:44.437Z,51.28
2022-12-04T19:54:12.725Z,44.83
2022-12-04T19:56:39.270Z,45.50
2022-12-04T19:59:07.622Z,45.42
2022-12-04T20:01:35.469Z,48.20
2022-12-04T20:04:05.346Z,47.05
2022-12-04T20:06:37.137Z,45.72
2022-12-04T20:09:06.845Z,39.13
2022-12-04T20:11:33.622Z,40.13
2022-12-04T20:14:01.475Z,40.28
2022-12-04T20:16:31.043Z,35.70
2022-12-04T20:18:58.168Z,34.95
2022-12-04T20:21:28.386Z,36.42
2022-12-04T20:23:55.085Z,39.33
2022-12-04T20:26:24.363Z,31.75
2022-12-04T20:28:52.193Z,33.17
2022-12-04T20:31:23.388Z,35.35
2022-12-04T20:33:52.712Z,39.10
2022-12-04T20:36:21.816Z,37.38
2022-12-04T20:38:49.714Z,35.67
2022-12-04T20:41:16.639Z,38.05
2022-12-04T20:43:43.847Z,38.40
2022-12-04T20:46:15.606Z,35.13
2022-12-04T20:48:48.142Z,38.83
2022-12-04T20:51:18.845Z,42.38
2022-12-04T20:56:13.553Z,41.00
2022-12-04T20:58:40.471Z,37.03
2022-12-04T21:01:13.111Z,40.00
2022-12-04T21:03:40.026Z,45.10
2022-12-04T21:06:14.315Z,42.22
2022-12-04T21:08:53.942Z,42.67
2022-12-04T21:11:21.774Z,39.92
2022-12-04T21:14:06.952Z,39.67
2022-12-04T21:16:33.799Z,44.55
2022-12-04T21:19:00.789Z,39.20
2022-12-04T21:21:27.656Z,38.90
2022-12-04T21:23:54.238Z,41.75
2022-12-04T21:26:20.897Z,40.30
2022-12-04T21:28:47.716Z,41.80
2022-12-04T21:31:14.577Z,41.88
2022-12-04T21:33:41.206Z,42.17
2022-12-04T21:36:09.238Z,43.03
2022-12-04T21:38:37.112Z,38.72
2022-12-04T21:41:05.699Z,37.88
2022-12-04T21:43:33.389Z,40.08
2022-12-04T21:46:09.455Z,40.00
2022-12-04T21:48:37.069Z,40.70
2022-12-04T21:51:16.853Z,38.03
2022-12-04T21:53:54.841Z,41.72
2022-12-04T21:56:22.687Z,43.13
2022-12-04T21:58:49.583Z,45.80
2022-12-04T22:01:17.839Z,43.30
2022-12-04T22:03:44.471Z,42.67
2022-12-04T22:06:11.318Z,43.63
2022-12-04T22:08:41.743Z,42.67
2022-12-04T22:11:10.537Z,45.22
2022-12-04T22:13:37.523Z,44.70
2022-12-04T22:16:07.328Z,46.42
2022-12-04T22:18:34.760Z,39.05
2022-12-04T22:21:05.082Z,44.03
2022-12-04T22:23:31.627Z,44.63
2022-12-04T22:26:05.323Z,43.03
2022-12-04T22:28:31.946Z,37.85
2022-12-04T22:31:07.391Z,38.78
2022-12-04T22:33:34.117Z,49.53
2022-12-04T22:36:09.752Z,34.88
2022-12-04T22:38:52.686Z,36.22
2022-12-04T22:41:25.213Z,40.20
2022-12-04T22:43:51.881Z,34.85
2022-12-04T22:46:18.957Z,31.45
2022-12-04T22:48:46.216Z,27.95
2022-12-04T22:51:16.203Z,17.92
2022-12-04T22:53:45.740Z,17.05
2022-12-04T22:56:15.400Z,15.27
2022-12-04T22:58:44.079Z,16.27
2022-12-04T23:01:22.794Z,16.35
2022-12-04T23:03:49.957Z,14.40
2022-12-04T23:06:18.404Z,15.63
2022-12-04T23:08:45.638Z,14.95
2022-12-04T23:11:18.341Z,15.18
2022-12-04T23:13:53.390Z,14.25
2022-12-04T23:16:21.878Z,16.02
2022-12-04T23:18:48.927Z,12.75
2022-12-04T23:21:16.555Z,14.48
2022-12-04T23:23:45.458Z,15.13
2022-12-04T23:26:14.767Z,14.68
2022-12-04T23:28:41.908Z,15.45
2022-12-04T23:31:08.956Z,15.27
2022-12-04T23:33:35.649Z,14.77
2022-12-04T23:36:03.319Z,13.95
2022-12-04T23:38:30.611Z,14.38
2022-12-04T23:41:11.262Z,16.05
2022-12-04T23:43:38.355Z,14.90
2022-12-04T23:46:11.022Z,15.63
2022-12-04T23:48:39.222Z,14.60
2022-12-04T23:51:06.187Z,16.10
2022-12-04T23:53:32.913Z,13.63
2022-12-04T23:56:00.952Z,14.60
2022-12-04T23:58:27.554Z,14.45
